Time;durP1;ratioP1;P1;durP2;ratioP2;P2;SDS_P1;SDS_P2;PMS_P1;PMS_P2;Temp;Humidity;BMP_temperature;BMP_pressure;BME280_temperature;BME280_humidity;BME280_pressure;Samples;Min_cycle;Max_cycle;Signal;HPM_P1;HPM_P2
2022/04/29 00:00:43;;;;;;;11.85;7.00;;;14.20;45.60;;;;;;4979800;28;20057;-43
2022/04/29 00:03:12;;;;;;;11.15;6.70;;;14.20;45.80;;;;;;4978248;28;20058;-43
2022/04/29 00:05:41;;;;;;;10.23;6.65;;;14.20;45.90;;;;;;4982129;28;20046;-42
2022/04/29 00:08:10;;;;;;;15.65;8.43;;;14.10;46.00;;;;;;4980962;28;20054;-45
2022/04/29 00:10:38;;;;;;;9.82;6.63;;;14.10;46.20;;;;;;4978768;28;20065;-43
2022/04/29 00:13:09;;;;;;;11.27;7.32;;;14.10;46.20;;;;;;4977750;28;20058;-44
2022/04/29 00:15:37;;;;;;;16.20;8.63;;;14.00;46.40;;;;;;4979123;28;20050;-43
2022/04/29 00:18:05;;;;;;;14.98;8.48;;;14.00;46.10;;;;;;4979952;28;20855;-42
2022/04/29 00:20:32;;;;;;;12.05;7.95;;;14.00;46.10;;;;;;4980806;28;20065;-44
2022/04/29 00:23:00;;;;;;;14.15;7.90;;;13.90;46.00;;;;;;4982049;28;20449;-42
2022/04/29 00:25:29;;;;;;;15.35;7.97;;;13.90;46.10;;;;;;4983881;28;20434;-43
2022/04/29 00:27:57;;;;;;;12.45;8.18;;;13.90;46.20;;;;;;4984905;28;20077;-43
2022/04/29 00:30:26;;;;;;;12.63;8.20;;;13.90;46.30;;;;;;4984076;28;20065;-46
2022/04/29 00:32:54;;;;;;;13.45;7.75;;;13.80;46.50;;;;;;4980826;28;20093;-43
2022/04/29 00:35:22;;;;;;;13.07;7.65;;;13.80;46.50;;;;;;4984768;28;20077;-43
2022/04/29 00:37:51;;;;;;;13.38;7.13;;;13.80;46.70;;;;;;4984915;28;20050;-43
2022/04/29 00:40:23;;;;;;;11.30;8.05;;;13.70;46.70;;;;;;4984572;28;20069;-44
2022/04/29 00:42:50;;;;;;;10.95;7.50;;;13.70;46.80;;;;;;4982357;28;20051;-43
2022/04/29 00:45:19;;;;;;;12.57;7.75;;;13.70;46.90;;;;;;4984548;28;20685;-43
2022/04/29 00:47:49;;;;;;;12.00;8.10;;;13.60;47.00;;;;;;4983801;28;20054;-43
2022/04/29 00:50:19;;;;;;;17.73;7.82;;;13.60;47.00;;;;;;4984309;28;20058;-44
2022/04/29 00:52:49;;;;;;;12.35;7.43;;;13.60;47.10;;;;;;4982007;28;20154;-46
2022/04/29 00:55:17;;;;;;;14.48;8.30;;;13.60;47.20;;;;;;4985058;28;20058;-43
2022/04/29 00:57:47;;;;;;;13.18;8.10;;;13.60;47.30;;;;;;4983299;28;20058;-43
2022/04/29 01:00:16;;;;;;;12.52;7.75;;;13.50;47.20;;;;;;4983734;28;20410;-42
2022/04/29 01:02:46;;;;;;;13.40;7.80;;;13.50;47.20;;;;;;4982079;28;20062;-42
2022/04/29 01:05:18;;;;;;;12.30;7.65;;;13.50;47.30;;;;;;4982470;28;20050;-42
2022/04/29 01:07:46;;;;;;;14.25;8.27;;;13.50;47.50;;;;;;4984527;28;20380;-43
2022/04/29 01:10:16;;;;;;;14.75;8.50;;;13.40;47.50;;;;;;4984479;28;20422;-42
2022/04/29 01:12:46;;;;;;;12.98;8.23;;;13.40;47.60;;;;;;4980236;28;20391;-44
2022/04/29 01:15:15;;;;;;;14.73;7.88;;;13.40;47.70;;;;;;4981909;28;20498;-42
2022/04/29 01:17:44;;;;;;;14.25;8.38;;;13.30;47.60;;;;;;4984502;28;20433;-43
2022/04/29 01:20:14;;;;;;;11.00;7.40;;;13.30;47.70;;;;;;4982790;28;20842;-43
2022/04/29 01:22:43;;;;;;;11.63;7.65;;;13.30;47.70;;;;;;4979690;28;20502;-44
2022/04/29 01:25:11;;;;;;;13.68;8.30;;;13.30;47.70;;;;;;4982869;28;20050;-42
2022/04/29 01:27:39;;;;;;;14.63;8.23;;;13.30;47.80;;;;;;4981940;28;20527;-42
2022/04/29 01:30:10;;;;;;;14.02;7.63;;;13.20;47.70;;;;;;4983715;28;20058;-42
2022/04/29 01:32:40;;;;;;;13.90;8.13;;;13.20;47.70;;;;;;4979317;28;20498;-43
2022/04/29 01:35:09;;;;;;;16.02;7.57;;;13.20;47.80;;;;;;4981720;28;20054;-43
2022/04/29 01:37:37;;;;;;;14.90;7.90;;;13.10;47.80;;;;;;4981910;28;20058;-43
2022/04/29 01:40:08;;;;;;;18.02;9.57;;;13.10;47.90;;;;;;4983388;28;20050;-42
2022/04/29 01:42:36;;;;;;;19.17;9.05;;;13.00;47.90;;;;;;4981316;28;20061;-43
2022/04/29 01:45:04;;;;;;;17.50;9.35;;;13.00;47.90;;;;;;4984241;28;20061;-42
2022/04/29 01:47:31;;;;;;;16.73;9.48;;;13.00;48.50;;;;;;4981782;28;20061;-42
2022/04/29 01:49:59;;;;;;;15.88;9.10;;;13.00;48.20;;;;;;4982678;28;20430;-48
2022/04/29 01:52:27;;;;;;;18.40;9.38;;;12.90;48.10;;;;;;4978501;28;20054;-43
2022/04/29 01:54:54;;;;;;;15.77;8.95;;;12.90;48.20;;;;;;4983828;28;20046;-45
2022/04/29 01:57:23;;;;;;;12.57;8.18;;;12.90;48.20;;;;;;4983249;28;20050;-43
2022/04/29 01:59:50;;;;;;;16.50;9.00;;;12.80;48.30;;;;;;4981804;28;20050;-44
2022/04/29 02:02:19;;;;;;;13.85;8.60;;;12.80;48.40;;;;;;4980802;28;20441;-42
2022/04/29 02:04:47;;;;;;;11.73;7.80;;;12.80;48.40;;;;;;4981277;28;20061;-42
2022/04/29 02:07:14;;;;;;;11.05;8.07;;;12.80;48.50;;;;;;4983155;28;20653;-42
2022/04/29 02:09:42;;;;;;;12.38;8.13;;;12.70;48.60;;;;;;4982725;28;20067;-42
2022/04/29 02:12:11;;;;;;;12.00;8.10;;;12.70;48.70;;;;;;4980310;28;20502;-45
2022/04/29 02:14:43;;;;;;;13.75;7.60;;;12.70;48.80;;;;;;4982300;28;20089;-42
2022/04/29 02:17:12;;;;;;;19.42;9.23;;;12.70;49.00;;;;;;4982118;28;20058;-44
2022/04/29 02:19:40;;;;;;;14.10;8.25;;;12.70;49.10;;;;;;4980898;28;20057;-43
2022/04/29 02:22:09;;;;;;;13.68;8.75;;;12.70;49.10;;;;;;4979475;28;20069;-44
2022/04/29 02:24:37;;;;;;;19.17;9.77;;;12.70;49.10;;;;;;4982387;28;20134;-42
2022/04/29 02:27:06;;;;;;;20.63;10.68;;;12.60;49.20;;;;;;4982955;28;20109;-43
2022/04/29 02:29:34;;;;;;;15.82;9.68;;;12.60;49.30;;;;;;4979201;28;20062;-42
2022/04/29 02:32:03;;;;;;;13.80;8.70;;;12.60;49.20;;;;;;4976088;28;20058;-43
2022/04/29 02:34:31;;;;;;;13.63;8.25;;;12.50;49.20;;;;;;4977316;28;20061;-43
2022/04/29 02:36:58;;;;;;;12.38;8.18;;;12.50;49.30;;;;;;4981454;28;20050;-42
2022/04/29 02:39:26;;;;;;;16.15;9.00;;;12.50;49.40;;;;;;4981651;28;20391;-44
2022/04/29 02:41:54;;;;;;;15.40;9.30;;;12.50;49.40;;;;;;4980411;28;20054;-42
2022/04/29 02:44:22;;;;;;;13.82;9.18;;;12.50;49.50;;;;;;4981355;28;20061;-42
2022/04/29 02:47:08;;;;;;;17.85;10.25;;;12.50;49.50;;;;;;4979039;28;20403;-43
2022/04/29 02:49:38;;;;;;;17.27;8.82;;;12.50;49.60;;;;;;4979048;28;20522;-43
2022/04/29 02:52:07;;;;;;;15.00;8.82;;;12.50;49.70;;;;;;4978741;28;20077;-43
2022/04/29 02:54:34;;;;;;;13.32;8.00;;;12.50;49.80;;;;;;4981222;28;20050;-43
2022/04/29 02:57:02;;;;;;;12.77;8.95;;;12.40;49.90;;;;;;4981734;28;20475;-43
2022/04/29 02:59:29;;;;;;;13.40;8.52;;;12.40;49.90;;;;;;4982442;28;20053;-42
2022/04/29 03:01:57;;;;;;;11.18;7.93;;;12.40;49.90;;;;;;4980305;28;20142;-43
2022/04/29 03:04:24;;;;;;;13.70;8.18;;;12.40;49.90;;;;;;4964290;28;20069;-42
2022/04/29 03:06:53;;;;;;;13.63;8.57;;;12.40;50.00;;;;;;4980456;28;20489;-45
2022/04/29 03:09:21;;;;;;;17.95;8.63;;;12.40;50.20;;;;;;4979188;28;20605;-43
2022/04/29 03:11:48;;;;;;;16.70;9.05;;;12.40;50.20;;;;;;4979850;28;20050;-42
2022/04/29 03:14:17;;;;;;;15.10;9.00;;;12.40;50.20;;;;;;4979815;28;20065;-42
2022/04/29 03:16:44;;;;;;;15.30;9.00;;;12.40;50.20;;;;;;4981817;28;20498;-42
2022/04/29 03:19:12;;;;;;;18.08;10.40;;;12.40;50.20;;;;;;4978300;28;20058;-42
2022/04/29 03:21:40;;;;;;;19.65;10.90;;;12.40;50.20;;;;;;4980069;28;20062;-42
2022/04/29 03:24:09;;;;;;;15.20;10.32;;;12.30;50.10;;;;;;4980336;28;20058;-42
2022/04/29 03:26:37;;;;;;;15.18;9.75;;;12.30;50.30;;;;;;4981181;28;20051;-42
2022/04/29 03:29:05;;;;;;;15.05;10.25;;;12.30;50.30;;;;;;4980895;28;20410;-42
2022/04/29 03:31:32;;;;;;;12.75;9.75;;;12.30;50.40;;;;;;4979634;28;22016;-45
2022/04/29 03:34:00;;;;;;;17.05;10.60;;;12.30;50.40;;;;;;4980002;28;20050;-44
2022/04/29 03:36:27;;;;;;;18.67;10.68;;;12.30;50.40;;;;;;4981766;28;20046;-42
2022/04/29 03:38:55;;;;;;;24.58;12.10;;;12.20;50.40;;;;;;4981208;28;20058;-42
2022/04/29 03:41:24;;;;;;;16.67;11.10;;;12.20;50.50;;;;;;4981372;28;20527;-42
2022/04/29 03:43:52;;;;;;;18.52;10.63;;;12.20;50.50;;;;;;4982417;28;20554;-44
2022/04/29 03:46:19;;;;;;;17.23;10.68;;;12.20;50.50;;;;;;4982475;28;20069;-42
2022/04/29 03:51:31;;;;;;;20.08;10.52;;;12.20;50.70;;;;;;4986150;28;20065;-42
2022/04/29 03:53:59;;;;;;;14.05;9.50;;;12.20;50.70;;;;;;4982010;28;20058;-43
2022/04/29 03:56:28;;;;;;;14.27;9.45;;;12.10;50.70;;;;;;4972921;28;20057;-42
2022/04/29 03:58:55;;;;;;;16.17;10.02;;;12.10;50.90;;;;;;4982001;28;20418;-46
2022/04/29 04:01:23;;;;;;;21.95;11.93;;;12.10;51.40;;;;;;4980670;28;20134;-43
2022/04/29 04:03:50;;;;;;;18.30;10.65;;;12.10;51.10;;;;;;4980259;28;20054;-43
2022/04/29 04:09:02;;;;;;;21.02;11.77;;;12.10;51.20;;;;;;4988162;28;20057;-43
2022/04/29 04:11:31;;;;;;;19.08;12.00;;;12.00;51.20;;;;;;4978936;28;20074;-43
2022/04/29 04:13:59;;;;;;;22.67;12.55;;;12.00;51.20;;;;;;4982063;28;20057;-43
2022/04/29 04:16:26;;;;;;;26.77;14.70;;;12.00;51.20;;;;;;4976699;28;20419;-44
2022/04/29 04:18:54;;;;;;;34.53;16.20;;;12.00;51.20;;;;;;4978443;28;20066;-47
2022/04/29 04:21:22;;;;;;;36.03;17.10;;;12.00;51.30;;;;;;4980775;28;20050;-43
2022/04/29 04:23:50;;;;;;;37.47;19.90;;;12.00;51.30;;;;;;4981858;28;20058;-42
2022/04/29 04:26:17;;;;;;;36.13;18.05;;;12.00;51.30;;;;;;4981103;28;20058;-43
2022/04/29 04:28:46;;;;;;;36.58;18.10;;;12.00;51.30;;;;;;4980723;28;20050;-44
2022/04/29 04:31:14;;;;;;;37.83;17.42;;;12.00;51.30;;;;;;4979929;28;20066;-45
2022/04/29 04:33:41;;;;;;;28.80;15.90;;;12.00;51.30;;;;;;4980588;28;20054;-42
2022/04/29 04:36:10;;;;;;;24.75;14.25;;;11.90;51.30;;;;;;4980542;28;20069;-42
2022/04/29 04:38:38;;;;;;;26.77;14.75;;;12.00;51.90;;;;;;4982202;28;20053;-43
2022/04/29 04:41:07;;;;;;;26.08;14.45;;;11.90;51.40;;;;;;4980551;28;20058;-42
2022/04/29 04:43:35;;;;;;;28.70;15.88;;;11.90;51.50;;;;;;4980334;28;20062;-42
2022/04/29 04:46:06;;;;;;;23.35;14.30;;;11.90;51.60;;;;;;4981425;28;20422;-42
2022/04/29 04:48:33;;;;;;;25.60;14.25;;;11.90;51.70;;;;;;4980477;28;20561;-43
2022/04/29 04:51:03;;;;;;;23.27;13.38;;;11.90;51.70;;;;;;4980889;28;20069;-42
2022/04/29 04:53:31;;;;;;;24.02;14.30;;;11.90;51.80;;;;;;4980037;28;20055;-43
2022/04/29 04:55:59;;;;;;;24.67;15.13;;;11.90;51.80;;;;;;4979354;28;20482;-43
2022/04/29 04:58:26;;;;;;;25.63;14.43;;;11.90;51.90;;;;;;4978411;28;20057;-43
2022/04/29 05:00:54;;;;;;;23.92;13.30;;;11.90;51.90;;;;;;4980959;28;20418;-43
2022/04/29 05:03:22;;;;;;;22.05;14.13;;;12.00;52.00;;;;;;4975158;28;20058;-43
2022/04/29 05:05:50;;;;;;;22.65;14.07;;;12.00;52.10;;;;;;4978153;28;20046;-47
2022/04/29 05:08:17;;;;;;;23.88;14.32;;;12.00;52.00;;;;;;4983498;28;20057;-43
2022/04/29 05:10:47;;;;;;;20.83;13.27;;;12.00;52.10;;;;;;4982809;28;20046;-42
2022/04/29 05:13:14;;;;;;;23.80;13.50;;;12.00;52.00;;;;;;4979235;28;20054;-42
2022/04/29 05:15:42;;;;;;;19.95;12.85;;;12.00;52.00;;;;;;4983718;28;20070;-46
2022/04/29 05:18:10;;;;;;;25.95;13.45;;;12.00;52.10;;;;;;4979206;28;20053;-42
2022/04/29 05:20:39;;;;;;;22.67;13.73;;;12.10;52.20;;;;;;4980817;28;20649;-42
2022/04/29 05:23:06;;;;;;;21.77;13.93;;;12.10;52.20;;;;;;4992840;28;20062;-44
2022/04/29 05:25:35;;;;;;;32.58;15.65;;;12.10;52.30;;;;;;4978872;28;20058;-42
2022/04/29 05:28:04;;;;;;;24.38;14.57;;;12.20;52.40;;;;;;4981532;28;20494;-43
2022/04/29 05:30:32;;;;;;;21.77;14.15;;;12.20;52.40;;;;;;4983658;28;20054;-43
2022/04/29 05:33:00;;;;;;;19.98;12.65;;;12.20;52.40;;;;;;4980025;28;20058;-42
2022/04/29 05:35:28;;;;;;;25.23;12.82;;;12.30;52.40;;;;;;4983457;28;20142;-43
2022/04/29 05:37:57;;;;;;;19.60;11.80;;;12.30;52.40;;;;;;4982786;28;20057;-43
2022/04/29 05:43:14;;;;;;;20.60;11.75;;;12.40;52.40;;;;;;4942197;28;20058;-43
2022/04/29 05:45:42;;;;;;;21.27;11.95;;;12.50;52.40;;;;;;4979069;28;20057;-45
2022/04/29 05:48:09;;;;;;;18.42;10.77;;;12.50;52.50;;;;;;4980566;28;20061;-43
2022/04/29 05:50:37;;;;;;;19.50;11.02;;;12.60;52.80;;;;;;4981349;28;20062;-43
2022/04/29 05:53:06;;;;;;;15.75;10.82;;;12.70;52.90;;;;;;4979669;28;20062;-43
2022/04/29 05:55:33;;;;;;;18.20;11.25;;;12.80;53.00;;;;;;4981939;28;20054;-43
2022/04/29 05:58:01;;;;;;;16.00;10.05;;;12.90;53.10;;;;;;4982465;28;20055;-43
2022/04/29 06:00:28;;;;;;;20.90;11.88;;;12.90;53.10;;;;;;4981490;28;20054;-43
2022/04/29 06:02:56;;;;;;;22.13;12.05;;;13.10;53.30;;;;;;4980068;28;20062;-42
2022/04/29 06:05:24;;;;;;;20.60;11.70;;;13.10;53.30;;;;;;4984000;28;20054;-45
2022/04/29 06:07:52;;;;;;;19.25;11.38;;;13.20;53.30;;;;;;4983639;28;20381;-43
2022/04/29 06:10:21;;;;;;;18.40;10.63;;;13.30;53.10;;;;;;4983652;28;20054;-43
2022/04/29 06:12:48;;;;;;;17.40;10.90;;;13.40;53.00;;;;;;4980413;28;20057;-45
2022/04/29 06:15:17;;;;;;;19.85;10.85;;;13.50;52.90;;;;;;4980855;28;20050;-43
2022/04/29 06:17:45;;;;;;;18.45;10.85;;;13.60;52.90;;;;;;4983428;28;20058;-43
2022/04/29 06:20:13;;;;;;;20.98;11.25;;;13.60;52.70;;;;;;4982817;28;20061;-42
2022/04/29 06:22:44;;;;;;;13.95;9.98;;;13.70;52.60;;;;;;4983141;28;20050;-45
2022/04/29 06:25:12;;;;;;;24.08;11.43;;;13.80;52.50;;;;;;4982403;28;20414;-43
2022/04/29 06:27:41;;;;;;;19.80;11.10;;;13.80;52.40;;;;;;4978315;28;20057;-42
2022/04/29 06:30:09;;;;;;;23.38;11.80;;;13.90;52.40;;;;;;4979888;28;20065;-43
2022/04/29 06:32:37;;;;;;;20.60;10.80;;;13.90;52.10;;;;;;4978319;28;20069;-42
2022/04/29 06:35:06;;;;;;;19.30;10.40;;;14.00;52.00;;;;;;4981850;28;20054;-42
2022/04/29 06:37:33;;;;;;;20.40;10.23;;;14.00;51.90;;;;;;4980568;28;20073;-43
2022/04/29 06:40:01;;;;;;;17.60;10.18;;;14.10;51.90;;;;;;4976268;28;20100;-43
2022/04/29 06:42:29;;;;;;;19.70;10.40;;;14.20;52.00;;;;;;4978790;28;20054;-44
2022/04/29 06:44:58;;;;;;;17.13;10.30;;;14.20;51.90;;;;;;4982748;28;20050;-44
2022/04/29 06:47:25;;;;;;;23.98;12.02;;;14.30;51.90;;;;;;4978643;28;20049;-43
2022/04/29 06:49:53;;;;;;;20.15;11.30;;;14.30;51.90;;;;;;4977731;28;20494;-44
2022/04/29 06:52:20;;;;;;;14.50;9.95;;;14.40;52.00;;;;;;4976572;28;20065;-43
2022/04/29 06:54:48;;;;;;;20.50;11.35;;;14.40;51.90;;;;;;4982541;28;20054;-44
2022/04/29 06:57:15;;;;;;;19.02;11.63;;;14.50;51.90;;;;;;4980835;28;20343;-42
2022/04/29 06:59:42;;;;;;;19.20;10.63;;;14.50;51.90;;;;;;4980540;28;20051;-43
2022/04/29 07:02:11;;;;;;;20.95;11.50;;;14.60;51.90;;;;;;4977383;28;20054;-43
2022/04/29 07:04:39;;;;;;;21.20;11.60;;;14.70;51.80;;;;;;4979230;28;20399;-42
2022/04/29 07:07:06;;;;;;;20.00;11.20;;;14.70;51.70;;;;;;4977040;28;20057;-43
2022/04/29 07:09:34;;;;;;;23.13;11.65;;;14.80;51.60;;;;;;4981534;28;20054;-44
2022/04/29 07:12:01;;;;;;;19.00;11.05;;;14.80;51.50;;;;;;4980849;28;20057;-43
2022/04/29 07:14:29;;;;;;;15.95;10.32;;;14.90;51.50;;;;;;4981408;28;20046;-43
2022/04/29 07:16:56;;;;;;;16.80;9.95;;;15.00;51.40;;;;;;4983334;28;20103;-42
2022/04/29 07:19:25;;;;;;;22.65;10.93;;;15.10;51.30;;;;;;4979675;28;20862;-46
2022/04/29 07:21:53;;;;;;;20.27;10.98;;;15.10;51.20;;;;;;4980126;28;20415;-43
2022/04/29 07:24:20;;;;;;;16.95;10.93;;;15.20;51.10;;;;;;4976765;28;20050;-42
2022/04/29 07:26:48;;;;;;;21.92;10.98;;;15.30;51.00;;;;;;4981069;28;20049;-42
2022/04/29 07:29:15;;;;;;;18.30;10.23;;;15.40;51.00;;;;;;4981875;28;20061;-42
2022/04/29 07:31:42;;;;;;;17.65;10.05;;;15.40;50.90;;;;;;4981384;28;20054;-42
2022/04/29 07:34:10;;;;;;;17.02;10.48;;;15.50;51.00;;;;;;4979352;28;20094;-44
2022/04/29 07:42:09;;;;;;;20.95;11.48;;;15.70;51.00;;;;;;4986247;28;20524;-43
2022/04/29 07:44:36;;;;;;;20.10;11.18;;;15.80;50.80;;;;;;4981855;28;20062;-43
2022/04/29 07:47:05;;;;;;;20.10;11.57;;;15.80;50.70;;;;;;4981542;28;20065;-45
2022/04/29 07:49:32;;;;;;;21.23;10.98;;;15.90;50.70;;;;;;4980291;28;20051;-42
2022/04/29 07:52:01;;;;;;;16.95;10.75;;;16.00;50.60;;;;;;4979263;28;20065;-42
2022/04/29 07:54:29;;;;;;;23.13;11.95;;;16.00;50.80;;;;;;4980632;28;20057;-43
2022/04/29 07:56:56;;;;;;;22.70;11.73;;;16.10;50.70;;;;;;4981910;28;20065;-42
2022/04/29 07:59:23;;;;;;;20.83;11.15;;;16.10;50.70;;;;;;4982716;28;20054;-42
2022/04/29 08:01:51;;;;;;;21.33;11.15;;;16.20;50.80;;;;;;4980182;28;20109;-43
2022/04/29 08:04:18;;;;;;;20.50;11.60;;;16.20;50.70;;;;;;4980139;28;20058;-43
2022/04/29 08:06:46;;;;;;;20.20;10.80;;;16.30;50.60;;;;;;4981922;28;20509;-44
2022/04/29 08:09:15;;;;;;;17.67;10.18;;;16.30;50.60;;;;;;4979629;28;20499;-43
2022/04/29 08:11:42;;;;;;;17.65;10.50;;;16.40;50.50;;;;;;4978711;28;20050;-42
2022/04/29 08:14:11;;;;;;;15.18;9.15;;;16.50;50.40;;;;;;4980735;28;20066;-42
2022/04/29 08:16:38;;;;;;;17.38;9.48;;;16.50;49.90;;;;;;4981807;28;20058;-43
2022/04/29 08:19:06;;;;;;;19.67;9.60;;;16.60;49.80;;;;;;4979652;28;20426;-42
2022/04/29 08:21:33;;;;;;;17.08;9.77;;;16.60;49.60;;;;;;4980693;28;20069;-42
2022/04/29 08:24:02;;;;;;;14.18;9.10;;;16.70;49.50;;;;;;4980377;28;20735;-42
2022/04/29 08:26:31;;;;;;;18.08;9.68;;;16.80;49.60;;;;;;4981800;28;20065;-43
2022/04/29 08:28:58;;;;;;;16.50;9.15;;;16.80;49.40;;;;;;4981839;28;20054;-42
2022/04/29 08:31:26;;;;;;;14.50;9.70;;;16.90;49.10;;;;;;4980978;28;20066;-42
2022/04/29 08:33:53;;;;;;;17.80;9.85;;;16.90;49.00;;;;;;4978186;28;20054;-44
2022/04/29 08:36:21;;;;;;;20.25;10.25;;;17.00;49.30;;;;;;4981968;28;20054;-43
2022/04/29 08:38:48;;;;;;;17.42;10.48;;;17.00;49.10;;;;;;4981512;28;20505;-43
2022/04/29 08:41:20;;;;;;;17.70;9.55;;;17.00;48.90;;;;;;4980933;28;20056;-42
2022/04/29 08:43:50;;;;;;;18.80;10.18;;;17.00;48.90;;;;;;4985126;28;20426;-42
2022/04/29 08:46:22;;;;;;;17.58;10.27;;;17.00;49.20;;;;;;4985922;28;20054;-42
2022/04/29 08:48:50;;;;;;;22.52;11.48;;;17.10;49.40;;;;;;4983419;28;20057;-43
2022/04/29 08:51:20;;;;;;;23.45;10.98;;;17.10;49.00;;;;;;4985172;28;20065;-42
2022/04/29 08:53:48;;;;;;;19.48;9.82;;;17.10;48.80;;;;;;4984311;28;20050;-43
2022/04/29 08:59:04;;;;;;;18.92;11.00;;;17.10;48.50;;;;;;4990882;28;20541;-42
2022/04/29 09:01:32;;;;;;;17.42;10.02;;;17.10;48.30;;;;;;4984474;28;20054;-42
2022/04/29 09:04:00;;;;;;;21.88;11.35;;;17.10;48.20;;;;;;4983276;28;20418;-42
2022/04/29 09:06:27;;;;;;;19.80;10.88;;;17.10;48.20;;;;;;4983841;28;20070;-42
2022/04/29 09:09:08;;;;;;;21.38;11.20;;;17.10;48.20;;;;;;4985095;28;20506;-42
2022/04/29 09:11:35;;;;;;;16.92;10.85;;;17.10;48.00;;;;;;4983262;28;20069;-44
2022/04/29 09:14:22;;;;;;;21.70;11.68;;;17.10;48.10;;;;;;4983090;28;20050;-44
2022/04/29 09:16:50;;;;;;;24.30;12.75;;;17.00;48.50;;;;;;4985383;28;20050;-42
2022/04/29 09:19:31;;;;;;;22.88;11.50;;;17.00;48.70;;;;;;4980141;28;20054;-43
2022/04/29 09:22:07;;;;;;;29.25;13.60;;;17.00;48.90;;;;;;4977372;28;20065;-42
2022/04/29 09:24:35;;;;;;;18.60;11.85;;;16.90;48.70;;;;;;4983184;28;20070;-42
2022/04/29 09:27:04;;;;;;;25.45;12.85;;;16.90;48.80;;;;;;4981358;28;20418;-42
2022/04/29 09:29:40;;;;;;;19.27;11.70;;;16.80;48.70;;;;;;4981931;28;20053;-43
2022/04/29 09:32:11;;;;;;;19.67;10.57;;;16.90;49.00;;;;;;4978615;28;20498;-43
2022/04/29 09:34:45;;;;;;;23.85;12.27;;;16.90;49.20;;;;;;4980369;28;20411;-42
2022/04/29 09:37:16;;;;;;;;;;;16.90;49.70;;;;;;4983622;28;20061;-42
2022/04/29 09:39:52;;;;;;;25.13;13.43;;;17.00;49.70;;;;;;4977725;28;19929;-44
2022/04/29 09:42:19;;;;;;;20.95;12.63;;;17.00;49.50;;;;;;4982067;28;20054;-45
2022/04/29 09:44:48;;;;;;;21.85;13.23;;;17.00;49.60;;;;;;4984374;28;20073;-43
2022/04/29 09:47:19;;;;;;;17.20;10.63;;;16.90;49.70;;;;;;4984814;28;20071;-44
2022/04/29 09:49:54;;;;;;;19.40;10.98;;;16.90;49.90;;;;;;4981549;28;20046;-42
2022/04/29 09:52:22;;;;;;;17.45;11.68;;;17.00;49.70;;;;;;4979482;28;20058;-42
2022/04/29 09:54:50;;;;;;;25.90;12.23;;;17.00;49.50;;;;;;4982698;28;20054;-44
2022/04/29 09:57:19;;;;;;;24.40;12.82;;;17.20;49.70;;;;;;4983864;28;20450;-42
2022/04/29 09:59:52;;;;;;;21.98;11.40;;;17.30;49.70;;;;;;4983134;28;20337;-42
2022/04/29 10:02:21;;;;;;;22.08;11.50;;;17.40;49.80;;;;;;4980490;28;20054;-43
2022/04/29 10:04:49;;;;;;;25.10;12.90;;;17.40;50.10;;;;;;4981506;28;20114;-42
2022/04/29 10:07:18;;;;;;;22.05;12.82;;;17.50;49.60;;;;;;4981874;28;20458;-42
2022/04/29 10:09:47;;;;;;;23.77;12.73;;;17.60;49.40;;;;;;4981140;28;20422;-42
2022/04/29 10:12:16;;;;;;;20.77;11.15;;;17.60;48.50;;;;;;4981477;28;20058;-42
2022/04/29 10:14:45;;;;;;;19.40;11.25;;;17.70;48.30;;;;;;4981298;28;20062;-43
2022/04/29 10:22:50;;;;;;;28.05;13.18;;;17.90;48.20;;;;;;4979308;28;20073;-42
2022/04/29 10:25:20;;;;;;;25.38;13.82;;;17.90;48.90;;;;;;4981060;28;20511;-42
2022/04/29 10:27:50;;;;;;;27.73;14.25;;;17.90;48.60;;;;;;4982222;28;20083;-42
2022/04/29 10:30:26;;;;;;;26.33;13.13;;;17.80;48.90;;;;;;4983886;28;20446;-43
2022/04/29 10:33:07;;;;;;;22.17;11.82;;;17.80;48.70;;;;;;4974592;28;20058;-44
2022/04/29 10:36:06;;;;;;;23.67;12.98;;;17.90;48.50;;;;;;4978976;28;20356;-45
2022/04/29 10:38:35;;;;;;;22.23;11.38;;;17.90;49.10;;;;;;4979449;28;20081;-42
2022/04/29 10:41:14;;;;;;;22.60;11.98;;;17.90;49.30;;;;;;4979656;28;20046;-42
2022/04/29 10:43:46;;;;;;;37.72;14.20;;;17.90;48.90;;;;;;4981622;28;20502;-42
2022/04/29 10:46:20;;;;;;;22.33;12.70;;;17.90;49.20;;;;;;4982399;28;20383;-42
2022/04/29 10:48:49;;;;;;;16.80;12.30;;;18.00;48.80;;;;;;4975801;28;20313;-42
2022/04/29 10:51:18;;;;;;;22.45;12.35;;;18.00;48.60;;;;;;4982828;28;20426;-42
2022/04/29 10:53:48;;;;;;;25.60;13.70;;;18.10;48.40;;;;;;4982073;28;20058;-43
2022/04/29 10:56:36;;;;;;;19.58;13.38;;;18.10;48.20;;;;;;4983412;28;20117;-42
2022/04/29 10:59:19;;;;;;;24.65;14.02;;;18.10;47.90;;;;;;4979071;28;20054;-43
2022/04/29 11:02:07;;;;;;;24.92;13.68;;;18.10;47.40;;;;;;4978963;28;20507;-42
2022/04/29 11:04:45;;;;;;;25.75;12.93;;;18.10;47.30;;;;;;4979730;28;20422;-42
2022/04/29 11:07:38;;;;;;;20.08;13.50;;;18.10;46.80;;;;;;4982954;28;20065;-42
2022/04/29 11:10:07;;;;;;;24.60;12.80;;;18.10;46.70;;;;;;4981003;28;20054;-43
2022/04/29 11:12:36;;;;;;;21.45;12.68;;;18.20;46.60;;;;;;4982480;28;20050;-42
2022/04/29 11:15:09;;;;;;;16.98;12.00;;;18.20;46.50;;;;;;4981650;28;20065;-43
2022/04/29 11:17:38;;;;;;;21.87;13.37;;;18.30;47.50;;;;;;4982397;28;20058;-42
2022/04/29 11:20:22;;;;;;;24.75;14.13;;;18.30;47.60;;;;;;4981779;28;20061;-42
2022/04/29 11:25:50;;;;;;;17.90;12.27;;;18.50;46.90;;;;;;4988721;28;20065;-45
2022/04/29 11:28:18;;;;;;;23.77;12.38;;;18.60;46.20;;;;;;4982008;28;20062;-42
2022/04/29 11:30:46;;;;;;;17.85;12.43;;;18.70;47.00;;;;;;4983151;28;20647;-42
2022/04/29 11:33:13;;;;;;;18.27;12.23;;;18.80;46.50;;;;;;4980803;28;20058;-42
2022/04/29 11:35:43;;;;;;;27.90;14.63;;;18.80;46.10;;;;;;4980428;28;20069;-42
2022/04/29 11:38:11;;;;;;;25.27;14.45;;;18.90;45.80;;;;;;4982791;28;20502;-42
2022/04/29 11:40:40;;;;;;;22.48;14.23;;;19.00;46.50;;;;;;4982291;28;20449;-45
2022/04/29 11:43:10;;;;;;;26.55;15.27;;;19.00;46.20;;;;;;4980257;28;20062;-43
2022/04/29 11:45:40;;;;;;;23.90;14.35;;;19.10;45.50;;;;;;4980834;28;20438;-42
2022/04/29 11:48:09;;;;;;;24.20;15.85;;;19.10;45.40;;;;;;4981655;28;20062;-43
2022/04/29 11:50:38;;;;;;;34.35;17.92;;;19.20;45.00;;;;;;4979201;28;20065;-42
2022/04/29 11:53:12;;;;;;;24.63;16.27;;;19.20;45.10;;;;;;4977616;28;20728;-42
2022/04/29 11:55:39;;;;;;;25.63;15.95;;;19.20;45.10;;;;;;4979988;28;20050;-43
2022/04/29 11:58:07;;;;;;;26.50;16.20;;;19.20;44.30;;;;;;4981319;28;20073;-45
2022/04/29 12:00:35;;;;;;;29.42;15.80;;;19.20;44.20;;;;;;4982383;28;20046;-42
2022/04/29 12:03:04;;;;;;;25.50;16.00;;;19.20;44.60;;;;;;4980605;28;20061;-42
2022/04/29 12:05:33;;;;;;;20.25;13.13;;;19.20;44.70;;;;;;4981728;28;20050;-43
2022/04/29 12:08:01;;;;;;;23.77;14.90;;;19.20;45.10;;;;;;4980564;28;20849;-43
2022/04/29 12:10:32;;;;;;;28.15;15.98;;;19.20;45.30;;;;;;4982245;28;20050;-43
2022/04/29 12:13:01;;;;;;;22.40;14.45;;;19.30;45.00;;;;;;4977328;28;20050;-47
2022/04/29 12:15:31;;;;;;;27.90;16.55;;;19.40;46.00;;;;;;4980545;28;20054;-42
2022/04/29 12:17:59;;;;;;;26.75;16.58;;;19.40;45.40;;;;;;4980759;28;20411;-44
2022/04/29 12:20:28;;;;;;;21.95;14.02;;;19.50;45.00;;;;;;4980501;28;20058;-43
2022/04/29 12:22:55;;;;;;;23.98;15.45;;;19.50;45.50;;;;;;4979119;28;20062;-43
2022/04/29 12:25:27;;;;;;;23.08;15.20;;;19.50;45.60;;;;;;4982305;28;20058;-43
2022/04/29 12:28:13;;;;;;;26.08;13.93;;;19.60;45.40;;;;;;4981670;28;20051;-42
2022/04/29 12:36:14;;;;;;;28.92;16.10;;;19.90;44.70;;;;;;4985930;28;20067;-43
2022/04/29 12:38:44;;;;;;;29.10;14.50;;;20.00;44.90;;;;;;4980015;28;20077;-43
2022/04/29 12:41:24;;;;;;;22.08;14.45;;;20.10;44.40;;;;;;4981008;28;20050;-43
2022/04/29 12:43:54;;;;;;;27.00;14.73;;;20.10;44.40;;;;;;4971051;28;20058;-44
2022/04/29 12:46:22;;;;;;;28.92;15.88;;;20.10;43.80;;;;;;4976561;28;20082;-45
2022/04/29 12:48:51;;;;;;;23.45;13.73;;;20.20;43.70;;;;;;4972831;28;20058;-45
2022/04/29 12:51:28;;;;;;;22.45;13.05;;;20.20;43.30;;;;;;4976797;28;20077;-43
2022/04/29 12:53:56;;;;;;;21.77;12.07;;;20.20;43.50;;;;;;4976026;28;20050;-43
2022/04/29 12:56:25;;;;;;;23.00;13.23;;;20.30;43.60;;;;;;4980431;28;20054;-43
2022/04/29 12:58:54;;;;;;;24.52;13.88;;;20.30;43.20;;;;;;4980054;28;20062;-45
2022/04/29 13:01:22;;;;;;;24.20;12.65;;;20.30;43.80;;;;;;4978994;28;20051;-44
2022/04/29 13:03:51;;;;;;;27.73;14.15;;;20.40;43.90;;;;;;4975442;28;20062;-43
2022/04/29 13:06:20;;;;;;;23.80;13.65;;;20.40;43.70;;;;;;4981363;28;20458;-42
2022/04/29 13:08:52;;;;;;;23.25;13.07;;;20.30;43.20;;;;;;4981429;28;20050;-42
2022/04/29 13:11:20;;;;;;;26.75;13.93;;;20.30;44.00;;;;;;4978700;28;20526;-43